Time;durP1;ratioP1;P1;durP2;ratioP2;P2;SDS_P1;SDS_P2;PMS_P1;PMS_P2;Temp;Humidity;BMP_temperature;BMP_pressure;BME280_temperature;BME280_humidity;BME280_pressure;Samples;Min_cycle;Max_cycle;Signal;HPM_P1;HPM_P2
2022/09/25 00:00:47;;;;;;;1.23;1.10;;;7.50;99.90;;;;;;4938119;29;20047;-77
2022/09/25 00:03:14;;;;;;;1.20;1.10;;;7.50;99.90;;;;;;4937567;29;20064;-78
2022/09/25 00:05:42;;;;;;;1.20;1.00;;;7.50;99.90;;;;;;4933730;29;20537;-78
2022/09/25 00:08:09;;;;;;;1.52;1.30;;;7.50;99.90;;;;;;4942091;28;20118;-77
2022/09/25 00:10:57;;;;;;;1.02;0.93;;;7.40;99.90;;;;;;4956771;28;20049;-78
2022/09/25 00:13:23;;;;;;;1.30;1.20;;;7.40;99.90;;;;;;4933431;29;20108;-78
2022/09/25 00:15:56;;;;;;;1.00;0.95;;;7.40;99.90;;;;;;4928056;29;20126;-77
2022/09/25 00:21:11;;;;;;;1.00;0.90;;;7.30;99.90;;;;;;4931886;29;20051;-78
2022/09/25 00:23:38;;;;;;;1.52;1.20;;;7.30;99.90;;;;;;4936967;29;20058;-77
2022/09/25 00:26:04;;;;;;;1.48;1.17;;;7.20;99.90;;;;;;4928458;28;20039;-78
2022/09/25 00:28:31;;;;;;;1.45;1.33;;;7.20;99.90;;;;;;4955801;28;20046;-77
2022/09/25 00:30:57;;;;;;;1.60;1.40;;;7.20;99.90;;;;;;4950522;28;20039;-77
2022/09/25 00:33:23;;;;;;;1.17;1.08;;;7.20;99.90;;;;;;4926733;29;20042;-78
2022/09/25 00:35:49;;;;;;;1.38;1.17;;;7.20;99.90;;;;;;4952899;29;20047;-78
2022/09/25 00:38:14;;;;;;;1.13;1.02;;;7.10;99.90;;;;;;4920977;29;20043;-78
2022/09/25 00:40:40;;;;;;;1.73;1.10;;;7.20;99.90;;;;;;4926362;28;20045;-78
2022/09/25 00:43:13;;;;;;;0.98;0.90;;;7.10;99.90;;;;;;4955700;28;20074;-78
2022/09/25 00:45:40;;;;;;;1.63;1.52;;;7.10;99.90;;;;;;4940704;29;20043;-77
2022/09/25 00:48:12;;;;;;;1.27;1.10;;;7.20;99.90;;;;;;4921386;29;20043;-78
2022/09/25 00:50:52;;;;;;;1.30;1.13;;;7.10;99.90;;;;;;4947332;28;20101;-78
2022/09/25 00:53:26;;;;;;;1.08;0.98;;;7.10;99.90;;;;;;4921972;28;20093;-78
2022/09/25 00:55:54;;;;;;;1.42;1.25;;;7.00;99.90;;;;;;4965253;28;20038;-78
2022/09/25 00:58:22;;;;;;;1.27;1.13;;;7.00;99.90;;;;;;4940177;29;20446;-78
2022/09/25 01:00:49;;;;;;;1.10;1.00;;;7.00;99.90;;;;;;4931152;28;20046;-78
2022/09/25 01:03:16;;;;;;;1.20;0.98;;;7.00;99.90;;;;;;4959371;28;20074;-77
2022/09/25 01:05:44;;;;;;;1.00;0.90;;;7.00;99.90;;;;;;4959282;28;20509;-77
2022/09/25 01:08:14;;;;;;;1.20;1.10;;;7.00;99.90;;;;;;4943091;29;20532;-78
2022/09/25 01:10:42;;;;;;;1.10;1.00;;;7.00;99.90;;;;;;4946933;28;20046;-78
2022/09/25 01:13:08;;;;;;;1.42;1.30;;;7.00;99.90;;;;;;4942713;28;20050;-77
2022/09/25 01:15:57;;;;;;;1.30;1.20;;;6.90;99.90;;;;;;4938395;29;20037;-78
2022/09/25 01:18:38;;;;;;;1.20;1.10;;;6.90;99.90;;;;;;4939696;29;20043;-78
2022/09/25 01:21:15;;;;;;;1.50;1.40;;;6.90;99.90;;;;;;4934111;28;20047;-78
2022/09/25 01:24:11;;;;;;;1.40;1.30;;;6.80;99.90;;;;;;4959016;28;20053;-78
2022/09/25 01:27:09;;;;;;;1.50;1.30;;;6.80;99.90;;;;;;4959011;28;20057;-78
2022/09/25 01:30:04;;;;;;;1.50;1.40;;;6.80;99.90;;;;;;4928645;28;20057;-77
2022/09/25 01:32:57;;;;;;;1.50;1.40;;;6.80;99.90;;;;;;4919316;29;20051;-77
2022/09/25 01:35:38;;;;;;;1.50;1.40;;;6.80;99.90;;;;;;4924976;29;20062;-77
2022/09/25 01:38:21;;;;;;;1.60;1.50;;;6.70;99.90;;;;;;4924309;29;20045;-77
2022/09/25 01:41:11;;;;;;;1.48;1.38;;;6.70;99.90;;;;;;4924804;29;20035;-78
2022/09/25 01:43:42;;;;;;;1.70;1.42;;;6.70;99.90;;;;;;4917854;28;20102;-77
2022/09/25 01:46:20;;;;;;;1.50;1.40;;;6.70;99.90;;;;;;4947272;28;20035;-77
2022/09/25 01:49:08;;;;;;;1.38;1.27;;;6.70;99.90;;;;;;4941041;29;20505;-77
2022/09/25 01:51:48;;;;;;;1.33;1.23;;;6.60;99.90;;;;;;4938915;29;20134;-77
2022/09/25 01:54:20;;;;;;;1.52;1.42;;;6.60;99.90;;;;;;4937280;28;20043;-78
2022/09/25 01:57:02;;;;;;;1.30;1.20;;;6.60;99.90;;;;;;4958519;28;20150;-78
2022/09/25 01:59:52;;;;;;;1.63;1.10;;;6.60;99.90;;;;;;4944981;28;20063;-77
2022/09/25 02:02:22;;;;;;;1.80;1.40;;;6.60;99.90;;;;;;4929993;29;20122;-78
2022/09/25 02:05:01;;;;;;;1.80;1.50;;;6.70;99.90;;;;;;4918160;28;20043;-77
2022/09/25 02:07:35;;;;;;;1.92;1.52;;;6.60;99.90;;;;;;4927064;29;20475;-78
2022/09/25 02:10:10;;;;;;;1.85;1.55;;;6.60;99.90;;;;;;4939037;29;20568;-77
2022/09/25 02:12:48;;;;;;;2.47;1.70;;;6.60;99.90;;;;;;4944440;28;20121;-77
2022/09/25 02:15:28;;;;;;;2.30;1.60;;;6.60;99.90;;;;;;4958642;28;20043;-78
2022/09/25 02:21:26;;;;;;;2.08;1.50;;;6.60;99.90;;;;;;4955510;29;20130;-77
2022/09/25 02:24:07;;;;;;;1.30;1.20;;;6.60;99.90;;;;;;4938140;29;20122;-77
2022/09/25 02:26:34;;;;;;;1.40;1.27;;;6.60;99.90;;;;;;4917667;28;20051;-78
2022/09/25 02:29:01;;;;;;;1.58;1.38;;;6.60;99.90;;;;;;4943042;28;20042;-78
2022/09/25 02:31:35;;;;;;;1.92;1.60;;;6.60;99.90;;;;;;4941856;28;20039;-77
2022/09/25 02:34:02;;;;;;;1.70;1.30;;;6.60;99.90;;;;;;4919483;29;20406;-78
2022/09/25 02:36:28;;;;;;;1.50;1.27;;;6.60;99.90;;;;;;4904065;29;20040;-77
2022/09/25 02:38:55;;;;;;;1.35;1.25;;;6.60;99.90;;;;;;4919581;29;20122;-78
2022/09/25 02:41:48;;;;;;;1.80;1.65;;;6.60;99.90;;;;;;4903386;29;20052;-78
2022/09/25 02:45:01;;;;;;;1.90;1.70;;;6.60;99.90;;;;;;4916186;29;20047;-78
2022/09/25 02:48:04;;;;;;;1.73;1.55;;;6.60;99.90;;;;;;4859592;29;20045;-78
2022/09/25 02:50:48;;;;;;;2.13;1.70;;;6.60;99.90;;;;;;4918607;29;20130;-78
2022/09/25 02:53:39;;;;;;;1.50;1.40;;;6.60;99.90;;;;;;4937260;29;20054;-77
2022/09/25 02:56:31;;;;;;;1.70;1.58;;;6.50;99.90;;;;;;4943706;28;20045;-78
2022/09/25 02:59:14;;;;;;;1.27;1.17;;;6.60;99.90;;;;;;4937437;28;20046;-78
2022/09/25 03:01:41;;;;;;;;;;;6.50;99.90;;;;;;4949368;28;20193;-77
2022/09/25 03:04:08;;;;;;;1.90;1.40;;;6.50;99.90;;;;;;4950405;28;19917;-77
2022/09/25 03:06:36;;;;;;;1.55;1.33;;;6.50;99.90;;;;;;4973216;28;20402;-77
2022/09/25 03:09:05;;;;;;;1.48;1.13;;;6.60;99.90;;;;;;4956955;28;20130;-78
2022/09/25 03:11:31;;;;;;;1.63;1.30;;;6.60;99.90;;;;;;4956075;28;20053;-77
2022/09/25 03:14:00;;;;;;;1.30;1.20;;;6.50;99.90;;;;;;4926511;28;20034;-77
2022/09/25 03:16:25;;;;;;;1.00;0.90;;;6.50;99.90;;;;;;4965960;28;20120;-77
2022/09/25 03:18:51;;;;;;;1.48;1.20;;;6.50;99.90;;;;;;4921770;29;20055;-77
2022/09/25 03:21:16;;;;;;;1.48;1.35;;;6.50;99.90;;;;;;4937688;29;20047;-77
2022/09/25 03:23:42;;;;;;;1.20;1.10;;;6.50;99.90;;;;;;4914239;29;20036;-77
2022/09/25 03:26:08;;;;;;;1.40;1.15;;;6.40;99.90;;;;;;4920818;29;20055;-77
2022/09/25 03:28:34;;;;;;;1.60;1.20;;;6.40;99.90;;;;;;4939746;28;20039;-77
2022/09/25 03:31:05;;;;;;;1.17;1.08;;;6.40;99.90;;;;;;4940454;28;20046;-77
2022/09/25 03:33:37;;;;;;;0.77;0.70;;;6.40;99.90;;;;;;4956818;28;20043;-78
2022/09/25 03:36:17;;;;;;;1.67;0.98;;;6.40;99.90;;;;;;4956336;28;20039;-77
2022/09/25 03:38:44;;;;;;;1.05;0.95;;;6.40;99.90;;;;;;4932486;28;20039;-77
2022/09/25 03:43:42;;;;;;;1.30;1.10;;;6.40;99.90;;;;;;4971007;28;20054;-74
2022/09/25 03:46:12;;;;;;;1.00;0.90;;;6.40;99.90;;;;;;4974896;28;20559;-75
2022/09/25 03:48:39;;;;;;;1.30;1.00;;;6.40;99.90;;;;;;4972815;28;20041;-74
2022/09/25 03:51:05;;;;;;;0.50;0.50;;;6.30;99.90;;;;;;4963968;28;20039;-74
2022/09/25 03:53:32;;;;;;;0.73;0.70;;;6.30;99.90;;;;;;4935784;29;20045;-74
2022/09/25 03:56:01;;;;;;;1.00;0.73;;;6.30;99.90;;;;;;4948091;28;20473;-74
2022/09/25 03:58:28;;;;;;;0.93;0.80;;;6.30;99.90;;;;;;4949607;29;20457;-75
2022/09/25 04:00:56;;;;;;;1.10;0.80;;;6.30;99.90;;;;;;4955398;28;20142;-75
2022/09/25 04:03:23;;;;;;;1.08;0.88;;;6.30;99.90;;;;;;4931602;29;20052;-75
2022/09/25 04:05:49;;;;;;;0.88;0.77;;;6.20;99.90;;;;;;4938288;28;20133;-74
2022/09/25 04:08:15;;;;;;;1.90;0.90;;;6.20;99.90;;;;;;4955168;28;20047;-74
2022/09/25 04:10:41;;;;;;;1.10;0.98;;;6.20;99.90;;;;;;4955446;28;20105;-74
2022/09/25 04:13:10;;;;;;;0.98;0.85;;;6.20;99.90;;;;;;4955505;28;20039;-74
2022/09/25 04:15:35;;;;;;;1.63;1.02;;;6.20;99.90;;;;;;4922862;28;20568;-75
2022/09/25 04:18:01;;;;;;;1.10;0.90;;;6.20;99.90;;;;;;4936801;28;20070;-75
2022/09/25 04:20:27;;;;;;;1.15;1.05;;;6.20;99.90;;;;;;4940153;29;20358;-74
2022/09/25 04:22:52;;;;;;;1.30;1.17;;;6.20;99.90;;;;;;4937023;29;20047;-74
2022/09/25 04:25:20;;;;;;;1.83;1.05;;;6.20;99.90;;;;;;4945608;28;20050;-74
2022/09/25 04:27:47;;;;;;;1.10;0.90;;;6.20;99.90;;;;;;4959021;28;20127;-74
2022/09/25 04:30:12;;;;;;;1.23;1.00;;;6.20;99.90;;;;;;4954008;28;20051;-75
2022/09/25 04:35:22;;;;;;;1.25;1.08;;;6.20;99.90;;;;;;4945596;28;20086;-74
2022/09/25 04:37:48;;;;;;;1.15;1.05;;;6.20;99.90;;;;;;4959001;28;20078;-75
2022/09/25 04:40:13;;;;;;;0.95;0.85;;;6.20;99.90;;;;;;4959358;28;20038;-75
2022/09/25 04:42:40;;;;;;;1.02;0.80;;;6.20;99.90;;;;;;4947777;28;20121;-75
2022/09/25 04:45:06;;;;;;;0.70;0.70;;;6.20;99.90;;;;;;4924123;29;20457;-75
2022/09/25 04:47:32;;;;;;;1.10;0.90;;;6.20;99.90;;;;;;4934477;28;20042;-75
2022/09/25 04:49:58;;;;;;;1.13;1.00;;;6.10;99.90;;;;;;4958681;28;20089;-75
2022/09/25 04:52:23;;;;;;;1.33;1.05;;;6.10;99.90;;;;;;4958702;28;20378;-74
2022/09/25 04:54:49;;;;;;;1.13;0.90;;;6.10;99.90;;;;;;4958872;28;20045;-74
2022/09/25 04:57:17;;;;;;;1.30;0.90;;;6.20;99.90;;;;;;4939280;29;20117;-74
2022/09/25 04:59:43;;;;;;;1.02;0.90;;;6.20;99.90;;;;;;4945463;28;20035;-74
2022/09/25 05:02:09;;;;;;;1.17;0.90;;;6.30;99.90;;;;;;4952196;28;20045;-75
2022/09/25 05:04:35;;;;;;;1.35;0.95;;;6.30;99.90;;;;;;4934583;29;20048;-75
2022/09/25 05:07:00;;;;;;;1.60;1.05;;;6.40;99.90;;;;;;4939134;29;20046;-75
2022/09/25 05:09:26;;;;;;;1.77;1.15;;;6.50;99.90;;;;;;4939355;29;20043;-75
2022/09/25 05:11:52;;;;;;;0.98;0.77;;;6.60;99.90;;;;;;4922368;29;20131;-75
2022/09/25 05:14:17;;;;;;;1.88;1.05;;;6.70;99.90;;;;;;4944205;28;20035;-74
2022/09/25 05:16:46;;;;;;;2.53;1.10;;;6.70;99.90;;;;;;4948081;28;20046;-74
2022/09/25 05:19:11;;;;;;;1.23;0.90;;;6.80;99.90;;;;;;4948011;28;20043;-74
2022/09/25 05:21:37;;;;;;;1.70;1.00;;;6.90;99.90;;;;;;4949449;29;20070;-75
2022/09/25 05:24:02;;;;;;;1.77;1.08;;;6.90;99.90;;;;;;4926599;28;20394;-74
2022/09/25 05:26:29;;;;;;;1.40;1.08;;;6.90;99.90;;;;;;4958224;28;20125;-74
2022/09/25 05:28:54;;;;;;;0.80;0.70;;;6.90;99.90;;;;;;4932508;28;20089;-75
2022/09/25 05:31:20;;;;;;;1.30;0.80;;;6.90;99.90;;;;;;4953061;28;20046;-75
2022/09/25 05:33:46;;;;;;;1.60;0.90;;;7.00;99.90;;;;;;4957466;28;20041;-75
2022/09/25 05:36:12;;;;;;;1.55;1.05;;;6.90;99.90;;;;;;4958030;28;20098;-75
2022/09/25 05:38:39;;;;;;;1.25;1.10;;;6.90;99.90;;;;;;4934091;29;20036;-74
2022/09/25 05:41:07;;;;;;;0.95;0.80;;;6.90;99.90;;;;;;4931426;29;20379;-74
2022/09/25 05:43:36;;;;;;;1.73;1.08;;;6.90;99.90;;;;;;4928881;28;20122;-75
2022/09/25 05:46:02;;;;;;;0.80;0.70;;;6.90;99.90;;;;;;4950519;28;20049;-75
2022/09/25 05:48:27;;;;;;;0.90;0.70;;;6.90;99.90;;;;;;4949393;28;20125;-75
2022/09/25 05:50:55;;;;;;;0.90;0.70;;;6.80;99.90;;;;;;4941647;28;20049;-75
2022/09/25 05:53:21;;;;;;;1.35;0.90;;;6.90;99.90;;;;;;4922577;29;20122;-75
2022/09/25 05:55:57;;;;;;;1.15;0.90;;;6.90;99.90;;;;;;4937131;29;20035;-75
2022/09/25 05:58:23;;;;;;;1.02;0.77;;;6.90;99.90;;;;;;4937595;29;20498;-75
2022/09/25 06:00:49;;;;;;;1.13;0.98;;;6.90;99.90;;;;;;4938750;28;20059;-74
2022/09/25 06:03:15;;;;;;;1.23;0.95;;;6.90;99.90;;;;;;4937775;28;20102;-74
2022/09/25 06:05:43;;;;;;;1.02;0.80;;;6.90;99.90;;;;;;4918067;29;20031;-75
2022/09/25 06:08:08;;;;;;;1.13;0.90;;;7.00;99.90;;;;;;4930030;29;20046;-74
2022/09/25 06:10:34;;;;;;;0.95;0.85;;;7.00;99.90;;;;;;4926611;28;20043;-74
2022/09/25 06:13:01;;;;;;;1.50;0.98;;;7.00;99.90;;;;;;4941304;28;20046;-75
2022/09/25 06:15:28;;;;;;;0.90;0.80;;;7.00;99.90;;;;;;4935125;29;20090;-74
2022/09/25 06:17:56;;;;;;;1.00;0.60;;;7.00;99.90;;;;;;4956652;28;20508;-75
2022/09/25 06:20:23;;;;;;;1.23;0.90;;;7.00;99.90;;;;;;4952526;28;20039;-75
2022/09/25 06:22:59;;;;;;;1.42;0.93;;;7.00;99.90;;;;;;4946442;28;20046;-76
2022/09/25 06:25:27;;;;;;;1.08;0.70;;;7.10;99.90;;;;;;4938150;29;20456;-75
2022/09/25 06:27:54;;;;;;;1.40;0.90;;;7.10;99.90;;;;;;4942773;28;20125;-76
2022/09/25 06:30:26;;;;;;;1.77;0.80;;;7.20;99.90;;;;;;4928149;28;20591;-75
2022/09/25 06:32:58;;;;;;;1.63;0.90;;;7.30;99.90;;;;;;4933088;28;20050;-75
2022/09/25 06:35:24;;;;;;;1.50;1.10;;;7.40;99.90;;;;;;4957854;28;20034;-75
2022/09/25 06:37:50;;;;;;;1.85;1.00;;;7.40;99.90;;;;;;4921595;29;20046;-74
2022/09/25 06:40:16;;;;;;;1.48;0.98;;;7.50;99.90;;;;;;4940828;28;20054;-74
2022/09/25 06:42:41;;;;;;;1.92;1.00;;;7.60;99.90;;;;;;4918712;28;20031;-74
2022/09/25 06:45:09;;;;;;;1.40;0.88;;;7.70;99.90;;;;;;4940066;29;20055;-74
2022/09/25 06:47:35;;;;;;;2.22;1.02;;;7.80;99.90;;;;;;4930634;29;20446;-74
2022/09/25 06:50:00;;;;;;;1.38;0.88;;;7.80;99.90;;;;;;4929785;29;20043;-74
2022/09/25 06:52:26;;;;;;;1.10;0.75;;;7.90;99.90;;;;;;4932729;29;20071;-74
2022/09/25 06:54:51;;;;;;;1.85;0.93;;;8.00;99.90;;;;;;4929345;29;20050;-75
2022/09/25 06:57:17;;;;;;;1.88;0.80;;;8.00;99.90;;;;;;4934075;29;21378;-74
2022/09/25 06:59:43;;;;;;;1.65;0.82;;;8.10;99.90;;;;;;4947094;28;20047;-74
2022/09/25 07:04:53;;;;;;;1.25;0.88;;;8.20;99.90;;;;;;4936603;29;20537;-74
2022/09/25 07:07:25;;;;;;;1.65;0.85;;;8.30;99.90;;;;;;5086432;27;20465;-75
2022/09/25 07:09:51;;;;;;;2.40;1.00;;;8.30;99.90;;;;;;5066910;28;20052;-75
2022/09/25 07:12:17;;;;;;;1.77;1.00;;;8.40;99.90;;;;;;5057676;28;20514;-75
2022/09/25 07:14:45;;;;;;;2.60;1.02;;;8.50;99.90;;;;;;5030728;28;20067;-75
2022/09/25 07:17:12;;;;;;;2.80;1.17;;;8.70;99.90;;;;;;5047335;28;20098;-75
2022/09/25 07:19:40;;;;;;;2.00;1.00;;;8.90;99.90;;;;;;5074570;22;20042;-76
2022/09/25 07:22:06;;;;;;;2.60;1.13;;;9.10;99.90;;;;;;5085561;28;20036;-76
2022/09/25 07:24:34;;;;;;;2.15;0.77;;;9.40;99.90;;;;;;5070689;28;20059;-76
2022/09/25 07:26:59;;;;;;;3.17;1.17;;;9.60;99.90;;;;;;5070622;28;20086;-76
2022/09/25 07:29:25;;;;;;;2.20;0.85;;;10.00;99.90;;;;;;5073489;28;20040;-76
2022/09/25 07:31:51;;;;;;;2.63;1.05;;;10.30;99.90;;;;;;5073921;28;20051;-76
2022/09/25 07:34:16;;;;;;;3.03;1.20;;;10.60;99.90;;;;;;5073793;28;20075;-76
2022/09/25 07:36:46;;;;;;;2.53;1.00;;;10.70;99.90;;;;;;5073141;28;20443;-76
2022/09/25 07:39:12;;;;;;;2.60;1.00;;;10.90;99.90;;;;;;5081918;28;20038;-76
2022/09/25 07:41:37;;;;;;;2.08;0.93;;;11.00;99.90;;;;;;5081480;28;20032;-76
2022/09/25 07:44:04;;;;;;;1.67;1.00;;;11.10;99.90;;;;;;5098313;28;20028;-76
2022/09/25 07:46:30;;;;;;;2.00;0.90;;;11.10;99.90;;;;;;5072640;28;20047;-76
2022/09/25 07:48:56;;;;;;;1.77;0.70;;;11.00;99.90;;;;;;5073397;28;20051;-76
2022/09/25 07:51:22;;;;;;;1.50;0.90;;;11.00;99.90;;;;;;5073330;28;20048;-76
2022/09/25 07:53:48;;;;;;;1.77;0.88;;;11.00;99.90;;;;;;5072798;28;20046;-76
2022/09/25 07:56:14;;;;;;;1.67;0.90;;;11.00;99.90;;;;;;5081732;28;20062;-76
2022/09/25 07:58:40;;;;;;;2.17;1.00;;;11.00;99.90;;;;;;5073439;28;20460;-77
2022/09/25 08:01:11;;;;;;;1.35;0.80;;;11.00;99.90;;;;;;5072752;28;20417;-76
2022/09/25 08:03:37;;;;;;;0.75;0.55;;;11.10;99.90;;;;;;5081626;28;20367;-77
2022/09/25 08:06:10;;;;;;;0.70;0.40;;;11.10;99.90;;;;;;5072412;28;20044;-76
2022/09/25 08:08:36;;;;;;;0.73;0.55;;;11.10;99.90;;;;;;5067660;28;20047;-76
2022/09/25 08:11:10;;;;;;;0.63;0.60;;;11.00;99.90;;;;;;5071474;28;20063;-78
2022/09/25 08:13:37;;;;;;;1.33;0.70;;;11.10;99.90;;;;;;5081312;28;20047;-77
2022/09/25 08:16:04;;;;;;;1.10;0.70;;;11.20;99.90;;;;;;5077061;28;20032;-76
2022/09/25 08:18:33;;;;;;;0.60;0.55;;;11.20;99.90;;;;;;5073559;28;20551;-76
2022/09/25 08:21:02;;;;;;;0.60;0.43;;;11.30;99.90;;;;;;5055933;28;20094;-76
2022/09/25 08:23:28;;;;;;;0.57;0.40;;;11.30;99.90;;;;;;5057502;28;20032;-76
2022/09/25 08:25:54;;;;;;;0.60;0.60;;;11.40;99.90;;;;;;5058745;28;20072;-76
2022/09/25 08:28:19;;;;;;;0.68;0.68;;;11.50;99.90;;;;;;5058684;28;20474;-75
2022/09/25 08:30:46;;;;;;;1.05;0.60;;;11.50;99.90;;;;;;5056526;28;20422;-76
2022/09/25 08:33:12;;;;;;;0.65;0.60;;;11.60;99.90;;;;;;5057108;28;20037;-75
2022/09/25 08:35:41;;;;;;;0.60;0.40;;;11.70;99.90;;;;;;5057704;28;20379;-77
2022/09/25 08:38:07;;;;;;;0.80;0.70;;;11.80;99.90;;;;;;5054692;28;20104;-76
2022/09/25 08:40:38;;;;;;;0.50;0.50;;;11.90;99.90;;;;;;5076164;28;20036;-77
2022/09/25 08:43:04;;;;;;;0.50;0.50;;;12.10;99.90;;;;;;5058296;28;20032;-76
2022/09/25 08:49:04;;;;;;;0.45;0.45;;;12.10;99.90;;;;;;5067300;28;20517;-76
2022/09/25 08:51:34;;;;;;;0.52;0.50;;;12.30;99.90;;;;;;5056490;28;20043;-77
2022/09/25 08:54:00;;;;;;;0.60;0.50;;;12.40;99.90;;;;;;5051720;28;20070;-77
2022/09/25 08:56:31;;;;;;;0.70;0.50;;;12.70;99.90;;;;;;5057511;28;20055;-77
2022/09/25 08:59:28;;;;;;;0.40;0.40;;;13.20;99.90;;;;;;5053960;28;20039;-77
2022/09/25 09:02:15;;;;;;;0.40;0.40;;;13.60;99.90;;;;;;5066082;28;20394;-76
2022/09/25 09:04:50;;;;;;;0.73;0.40;;;13.80;99.90;;;;;;5074090;28;20061;-77
2022/09/25 09:07:35;;;;;;;0.50;0.30;;;14.00;99.90;;;;;;5058563;28;20048;-77
2022/09/25 09:10:14;;;;;;;0.45;0.28;;;14.60;99.90;;;;;;5056885;28;20032;-77
2022/09/25 09:12:52;;;;;;;0.20;0.20;;;14.90;99.90;;;;;;5059180;28;20036;-76
2022/09/25 09:15:36;;;;;;;0.20;0.20;;;15.00;99.90;;;;;;5056295;28;20044;-76
2022/09/25 09:18:07;;;;;;;;;;;15.20;99.90;;;;;;5071694;28;20241;-77
2022/09/25 09:20:55;;;;;;;0.22;0.22;;;15.20;99.90;;;;;;5054524;28;19923;-77
2022/09/25 09:23:40;;;;;;;0.20;0.20;;;15.10;99.90;;;;;;5059747;28;20055;-77
2022/09/25 09:26:22;;;;;;;0.47;0.30;;;15.10;99.90;;;;;;5055625;28;20047;-77
2022/09/25 09:28:55;;;;;;;1.05;0.20;;;14.80;99.90;;;;;;5056704;28;20066;-76
2022/09/25 09:31:29;;;;;;;0.80;0.17;;;14.60;99.90;;;;;;5057892;28;20122;-77
2022/09/25 09:34:29;;;;;;;0.15;0.15;;;14.50;99.90;;;;;;5054602;28;20032;-76
2022/09/25 09:37:20;;;;;;;1.00;0.30;;;14.60;99.90;;;;;;5055448;28;20036;-76
2022/09/25 09:40:16;;;;;;;0.20;0.20;;;14.80;99.90;;;;;;5054657;28;20101;-76
2022/09/25 09:43:03;;;;;;;0.22;0.20;;;15.00;99.90;;;;;;5057295;28;20032;-76
2022/09/25 09:45:43;;;;;;;0.20;0.20;;;15.20;99.90;;;;;;5057290;28;20493;-77
2022/09/25 09:48:12;;;;;;;0.10;0.10;;;15.60;99.90;;;;;;5056814;28;20035;-75
2022/09/25 09:50:48;;;;;;;0.20;0.20;;;15.90;99.90;;;;;;5055314;28;20484;-76
2022/09/25 09:53:44;;;;;;;0.52;0.20;;;16.20;99.90;;;;;;5056675;28;20115;-77
2022/09/25 09:56:22;;;;;;;0.20;0.20;;;16.40;99.90;;;;;;5054135;28;20050;-77
2022/09/25 09:58:53;;;;;;;0.30;0.20;;;16.30;99.90;;;;;;5055599;28;20497;-76
2022/09/25 10:01:25;;;;;;;0.20;0.10;;;16.10;99.90;;;;;;5057017;28;20040;-76
2022/09/25 10:04:02;;;;;;;0.30;0.10;;;16.00;99.90;;;;;;5054720;28;20517;-77
2022/09/25 10:06:31;;;;;;;0.38;0.20;;;15.90;99.90;;;;;;5056797;28;20040;-76
2022/09/25 10:08:56;;;;;;;0.10;0.10;;;16.00;99.90;;;;;;5060719;28;20508;-76
2022/09/25 10:11:22;;;;;;;0.10;0.10;;;16.00;99.90;;;;;;5054768;28;20036;-78
2022/09/25 10:13:51;;;;;;;0.25;0.25;;;16.10;99.90;;;;;;5055908;28;20036;-77
2022/09/25 10:16:26;;;;;;;0.32;0.20;;;16.20;99.90;;;;;;5052978;28;20071;-78
2022/09/25 10:19:24;;;;;;;0.32;0.10;;;16.20;99.90;;;;;;5065391;28;20036;-78
2022/09/25 10:22:08;;;;;;;0.55;0.20;;;16.00;99.90;;;;;;5062804;28;20043;-78
2022/09/25 10:24:57;;;;;;;0.10;0.10;;;15.70;99.90;;;;;;5055818;28;20131;-77
2022/09/25 10:27:31;;;;;;;0.10;0.10;;;15.40;99.90;;;;;;5058302;28;20051;-78
2022/09/25 10:30:21;;;;;;;0.57;0.20;;;14.90;99.90;;;;;;5060909;28;20028;-80
2022/09/25 10:33:23;;;;;;;0.35;0.20;;;14.50;99.90;;;;;;5085677;28;20047;-78
2022/09/25 10:35:53;;;;;;;0.40;0.20;;;14.10;99.90;;;;;;5035036;28;20044;-78
2022/09/25 10:38:46;;;;;;;0.80;0.20;;;13.80;99.90;;;;;;5056365;28;20394;-78
2022/09/25 10:41:18;;;;;;;0.20;0.20;;;13.50;99.90;;;;;;5062976;28;20051;-77
2022/09/25 10:43:59;;;;;;;0.55;0.20;;;13.40;99.90;;;;;;5059029;28;20044;-77
2022/09/25 10:52:39;;;;;;;0.10;0.10;;;13.30;99.90;;;;;;5072809;28;20105;-76
2022/09/25 10:55:27;;;;;;;0.20;0.20;;;13.40;99.90;;;;;;5050247;28;20031;-76
2022/09/25 10:58:21;;;;;;;0.20;0.20;;;13.50;99.90;;;;;;5056391;28;20437;-77
2022/09/25 11:00:52;;;;;;;0.10;0.10;;;13.60;99.90;;;;;;5056715;28;20040;-76
2022/09/25 11:03:31;;;;;;;0.20;0.20;;;13.70;99.90;;;;;;5055930;28;20062;-76
2022/09/25 11:06:19;;;;;;;0.22;0.20;;;13.90;99.90;;;;;;5056702;28;20508;-76
2022/09/25 11:09:07;;;;;;;0.50;0.20;;;14.00;99.90;;;;;;5056896;28;20056;-76
2022/09/25 11:11:35;;;;;;;0.35;0.20;;;14.20;99.90;;;;;;5056547;28;20039;-76
2022/09/25 11:14:04;;;;;;;0.13;0.10;;;14.30;99.90;;;;;;5055516;28;20410;-76
2022/09/25 11:16:45;;;;;;;1.15;0.20;;;14.50;99.90;;;;;;5056768;28;20546;-76
2022/09/25 11:19:27;;;;;;;0.25;0.25;;;14.70;99.90;;;;;;5056704;28;20067;-76
2022/09/25 11:22:28;;;;;;;0.63;0.20;;;14.80;99.90;;;;;;5061321;28;20064;-76
2022/09/25 11:25:13;;;;;;;0.20;0.20;;;14.90;99.90;;;;;;5072495;28;20455;-76
2022/09/25 11:28:21;;;;;;;0.40;0.13;;;15.00;99.90;;;;;;5054321;28;20047;-76
2022/09/25 11:31:23;;;;;;;0.20;0.20;;;15.20;99.90;;;;;;5017021;28;20110;-76
2022/09/25 11:34:16;;;;;;;0.15;0.15;;;15.40;99.90;;;;;;5015328;28;20299;-76
2022/09/25 11:37:18;;;;;;;0.10;0.10;;;15.50;99.90;;;;;;5001938;28;20060;-76
2022/09/25 11:43:24;;;;;;;0.10;0.10;;;16.00;99.90;;;;;;5065359;28;20528;-76
2022/09/25 11:46:12;;;;;;;0.20;0.10;;;16.20;99.90;;;;;;5069976;28;20124;-76
2022/09/25 11:49:36;;;;;;;0.82;0.20;;;16.40;99.90;;;;;;5056936;28;20126;-76
2022/09/25 11:52:21;;;;;;;0.30;0.20;;;16.60;99.90;;;;;;4996173;28;20079;-76
2022/09/25 11:55:25;;;;;;;0.30;0.20;;;16.70;99.90;;;;;;4999821;28;20407;-76
2022/09/25 11:58:35;;;;;;;0.20;0.20;;;16.70;99.90;;;;;;4999137;28;20087;-76
2022/09/25 12:01:22;;;;;;;0.20;0.20;;;16.70;99.90;;;;;;5076776;28;20047;-77
2022/09/25 12:04:31;;;;;;;0.30;0.20;;;16.50;99.90;;;;;;5059916;28;20127;-76
2022/09/25 12:07:21;;;;;;;0.55;0.40;;;16.40;99.90;;;;;;5076093;28;20044;-76
2022/09/25 12:14:13;;;;;;;;;;;;;;;;;;;;;
2022/09/25 12:17:38;;;;;;;0.38;0.22;;;17.30;99.90;;;;;;5074588;28;20043;-76
2022/09/25 12:20:58;;;;;;;0.20;0.20;;;18.00;99.90;;;;;;5076051;28;20055;-76
2022/09/25 12:23:48;;;;;;;0.10;0.10;;;18.60;99.90;;;;;;5060124;28;20444;-76
2022/09/25 12:26:59;;;;;;;0.17;0.17;;;18.70;99.90;;;;;;5064753;28;20078;-76
2022/09/25 12:32:29;;;;;;;0.28;0.20;;;18.50;99.90;;;;;;5133280;22;20052;-76
2022/09/25 12:35:25;;;;;;;0.10;0.10;;;18.20;99.90;;;;;;5039788;28;20048;-76
2022/09/25 12:38:22;;;;;;;0.60;0.10;;;17.90;99.90;;;;;;5037565;28;20048;-76
2022/09/25 12:40:58;;;;;;;0.25;0.10;;;17.70;99.90;;;;;;5035543;28;20048;-75
2022/09/25 12:43:34;;;;;;;0.10;0.10;;;17.40;99.90;;;;;;5062266;22;20412;-78
2022/09/25 12:46:28;;;;;;;0.10;0.10;;;17.10;99.90;;;;;;5056573;28;20111;-78
2022/09/25 12:49:07;;;;;;;0.20;0.20;;;17.00;99.90;;;;;;5053982;28;20036;-78
2022/09/25 12:51:47;;;;;;;0.20;0.20;;;16.90;99.90;;;;;;5060816;28;20149;-78
2022/09/25 12:54:22;;;;;;;0.20;0.20;;;16.80;99.90;;;;;;5073040;28;20131;-78
2022/09/25 12:56:54;;;;;;;0.13;0.13;;;16.70;99.90;;;;;;5072624;28;20040;-78
2022/09/25 12:59:52;;;;;;;0.30;0.30;;;16.60;99.90;;;;;;5063752;28;20063;-78
2022/09/25 13:02:24;;;;;;;0.20;0.10;;;16.50;99.90;;;;;;5022224;28;20045;-78
2022/09/25 13:05:19;;;;;;;0.43;0.15;;;16.50;99.90;;;;;;5043504;28;20037;-78
2022/09/25 13:07:49;;;;;;;0.17;0.17;;;16.40;99.90;;;;;;5052602;28;20033;-78
2022/09/25 13:11:06;;;;;;;0.70;0.25;;;16.40;99.90;;;;;;5064071;28;20048;-78
2022/09/25 13:13:44;;;;;;;0.20;0.20;;;16.30;99.90;;;;;;5055461;28;20044;-78
2022/09/25 13:16:13;;;;;;;0.10;0.10;;;16.30;99.90;;;;;;5064242;28;20395;-78
2022/09/25 13:18:47;;;;;;;0.20;0.20;;;16.10;99.90;;;;;;5072088;28;20066;-78
2022/09/25 13:21:24;;;;;;;0.28;0.28;;;16.10;99.90;;;;;;5072807;28;20380;-78
2022/09/25 13:23:52;;;;;;;0.20;0.20;;;16.10;99.90;;;;;;5063052;28;20075;-78
2022/09/25 13:26:25;;;;;;;0.20;0.20;;;16.10;99.90;;;;;;5072324;28;20067;-78
2022/09/25 13:28:59;;;;;;;0.13;0.13;;;16.20;99.90;;;;;;5069893;28;21147;-78
2022/09/25 13:31:31;;;;;;;0.35;0.20;;;16.10;99.90;;;;;;5064001;28;20037;-78
2022/09/25 13:34:00;;;;;;;0.47;0.20;;;16.10;99.90;;;;;;5072429;28;20406;-78
2022/09/25 13:36:28;;;;;;;0.40;0.20;;;16.00;99.90;;;;;;5066672;28;20044;-78
2022/09/25 13:42:21;;;;;;;60.50;25.15;;;15.70;99.90;;;;;;5056078;28;20406;-78
2022/09/25 13:45:00;;;;;;;;;;;15.70;99.90;;;;;;5054207;28;20041;-78
2022/09/25 13:47:26;;;;;;;583.25;556.25;;;15.60;99.90;;;;;;5054714;28;20382;-78
2022/09/25 13:50:05;;;;;;;484.40;463.70;;;15.60;99.90;;;;;;5072029;28;20128;-78
2022/09/25 13:56:02;;;;;;;554.70;512.70;;;15.40;99.90;;;;;;5059841;28;20110;-78
2022/09/25 13:58:31;;;;;;;538.55;407.90;;;15.40;99.90;;;;;;5054453;28;20040;-78
2022/09/25 14:00:58;;;;;;;340.65;324.55;;;15.40;99.90;;;;;;5054161;28;20048;-78
2022/09/25 14:03:45;;;;;;;286.67;274.38;;;15.40;99.90;;;;;;5048931;28;20037;-77
2022/09/25 14:06:33;;;;;;;254.55;243.57;;;15.50;99.90;;;;;;5055506;28;20036;-78
2022/09/25 14:09:06;;;;;;;177.57;170.18;;;15.60;99.90;;;;;;5038273;28;20059;-78
2022/09/25 14:11:36;;;;;;;125.75;120.78;;;15.70;99.90;;;;;;5051689;28;20502;-78